Marble Canyon, AZ (86036)

10:15 PM MST on July 22, 2014 (GMT -0700)
Page Arizona (KAZPAGE1) Elev 4172 ft | 36.90 °N, 111.47 °W | Change Station

Current weather conditions updated 4 seconds ago

Clear
Clear
90.9 °F
Feels Like 87 °F
N
6.0
Wind Variable Wind from South
Gusts 11.0 mph

Tomorrow is forecast to be nearly the same temperature as today.

Today
High -- | Low -- °F
--% Chance of Precip.
Yesterday
High -- | Low -- °F
Precip. -- in
5:24 AM 7:41 PM
Waning Crescent, 12% visible
Pressure 29.88 in
Visibility 10.0 miles
Clouds Clear
Heat Index 87 °F
Dew Point 35 °F
Humidity 14%
Rainfall 0.00 in
Snow Depth Not available.
UV 0 out of 12
Pollen 4.80 out of 12
Air Quality Not available.
Flu Activity Not available.
METAR KPGA 230453Z AUTO 20006KT 10SM CLR 34/01 A3012 RMK AO2 SLP118 T03390006

More Conditions Fewer Conditions

Pressure 29.88 in
Visibility 10.0 miles
Clouds Clear
Heat Index 87 °F
Dew Point 35 °F
Humidity 14%
Rainfall 0.00 in
Snow Depth Not available.
UV 0 out of 12
Pollen 4.80 out of 12
Air Quality Not available.
Flu Activity Not available.
METAR KPGA 230453Z AUTO 20006KT 10SM CLR 34/01 A3012 RMK AO2 SLP118 T03390006

More Conditions Fewer Conditions

10-Day Weather Forecast

Almanac

Astronomy

Jul. 22, 2014 Rise Set
Actual Time 5:24 AM MST 7:41 PM MST
Civil Twilight 4:54 AM MST 8:10 PM MST
Nautical Twilight 4:18 AM MST 8:46 PM MST
Astronomical Twilight 3:39 AM MST 9:25 PM MST
Moon 1:59 AM MST (7/22) 4:22 PM MST (7/22)
Length of Visible Light 15h 15m
Length of Day
14h 16m
Tomorrow will be 1m 28s shorter.
Waning Crescent, 12% of the Moon is Illuminated
Jul 23
Waning Crescent
Jul 26
New
Aug 3
First Quarter
Aug 10
Full
Aug 17
Last Quarter

Yesterday's Extremes

State Highs State Lows

Community

WunderPhotos

Upload Photos

1,736,513 photos uploaded!

Nearby

Snow Depth

Station Depth Elevation
Snowslide Canyon 0 in 9730 ft
White Horse Lake 0 in 7180 ft
Workman Creek 0 in 6900 ft
Maverick Fork 0 in 9200 ft
Beaver Head 0 in 7990 ft

Earthquake Activity

City Distance Mag. Time & Date
No recent earthquake activity has been reported nearby.
Minimum magnitude displayed is 2.5.

Coastal Water Temperatures

Place Temperature
No Stations Reporting

Nearby Weather Stations

Station Location Temp. Heat Index Dew Point Humidity Wind Precip. Elev Updated Type
Page Arizona, Page, AZ 90.9 °F 87 °F 35 °F 14% South  at  6.0 mph 0.00 in / hr 4172 ft 10:15 PM MST Rapid Fire
RAWS PARIA POINT AZ, Page, AZ 79 °F 78 °F 32 °F 18% WSW  at  4 mph 0.00 in / hr 7234 ft 9:00 PM MST MADIS
RAWS FOUR SPRINGS AZ, Kanab, UT 81 °F 79 °F 33 °F 18% South  at  2 mph 0.00 in / hr 6560 ft 10:19 PM MDT MADIS

Show More Stations Show Fewer Stations